This is the latest recevied weather packets stored in our database for station/object W4CKA. If no packets are shown the sender has not sent any weather packets the latest 10 day(s).
| Time | Temp. | Humidity | Pressure | Rain* | Wind** | Luminosity | Snow |
|---|---|---|---|---|---|---|---|
| 1787931075 | 27.22° C | 80% | 1060.7 hPa | 0 mm | - | 601 W/m² | - |
| 1787930474 | 27.78° C | 81% | 1060.8 hPa | 0 mm | - | 593 W/m² | - |
| 1787929874 | 26.11° C | 83% | 1060.8 hPa | 0 mm | - | 552 W/m² | - |
| 1787929274 | 26.67° C | 81% | 1060.6 hPa | 0 mm | - | 569 W/m² | - |
| 1787928673 | 26.67° C | 85% | 1060.8 hPa | 0 mm | - | 421 W/m² | - |
| 1787928070 | 26.11° C | 85% | 1060.8 hPa | 0 mm | - | 418 W/m² | - |
| 1787927470 | 26.67° C | 83% | 1060.7 hPa | 0 mm | - | 401 W/m² | - |
| 1787926865 | 27.22° C | 82% | 1060.9 hPa | 0 mm | - | 276 W/m² | - |
| 1787926265 | 26.11° C | 85% | 1060.7 hPa | 0 mm | - | 409 W/m² | - |
| 1787925660 | 25.56° C | 87% | 1060.6 hPa | 0 mm | - | 343 W/m² | - |
| 1787925060 | 25.56° C | 87% | 1060.6 hPa | 0 mm | - | 246 W/m² | - |
| 1787924460 | 25.56° C | 87% | 1060.5 hPa | 0 mm | - | 236 W/m² | - |
| 1787923855 | 26.67° C | 83% | 1060.5 hPa | 0 mm | - | 322 W/m² | - |
| 1787923252 | 25.56° C | 86% | 1060.5 hPa | 0 mm | - | 181 W/m² | - |
| 1787922652 | 24.44° C | 89% | 1060.4 hPa | 0 mm | - | 256 W/m² | - |
| 1787922048 | 22.78° C | 98% | 1060.3 hPa | 0 mm | - | 174 W/m² | - |
| 1787921449 | 21.11° C | 99% | 1060.3 hPa | 0 mm | - | 133 W/m² | - |
| 1787920845 | 20.56° C | 99% | 1060.2 hPa | 0 mm | - | 105 W/m² | - |
| 1787920245 | 20° C | 99% | 1060.2 hPa | 0 mm | - | 93 W/m² | - |
| 1787919642 | 19.44° C | 99% | 1060.1 hPa | 0 mm | - | 51 W/m² | - |
| 1787919040 | 19.44° C | 99% | 1060.2 hPa | 0 mm | - | 48 W/m² | - |
| 1787918440 | 18.89° C | 99% | 1059.9 hPa | 0 mm | - | 40 W/m² | - |
| 1787917838 | 18.89° C | 99% | 1059.7 hPa | 0 mm | - | 32 W/m² | - |
| 1787917237 | 18.89° C | 99% | 1059.7 hPa | 0 mm | - | 26 W/m² | - |
| 1787916637 | 19.44° C | 99% | 1059.7 hPa | 0 mm | - | 20 W/m² | - |
* Rain latest hour (hover to see other rain measurements)
** Current wind speed in m/s (hover to see current wind gust speed)